Valenca, Brazil
Current Conditions -  °F | °C
As of 8:00 PM on Monday 26 Jan 2015 (Local Time) from SBSC Reporting Station
Broken Clouds Broken Clouds  
Wind Chill: 79°   Ceiling: 10000
Heat Index: 81°   Visibility: 6mi
Dew Point: 66°   Wind: 6mph
Humidity: 65%   Direction: 20°NNE
Pressure: 29.88"   Gusts: NA
Location:  22.25°S, 43.7°W
Report Text: SBSC 262200Z 02005KT 9999 FEW035 BKN100 26/19 Q1012
Loading
Personal Weather Stations






























Interactive Weather Map New forecast layout! Learn more

10-Day Weather Forecast

Advertisements
Track Severe Weather on mobile